Terminal Aerodrome Forecast
Issued by NWS Wilmington, OH

Current Version | Previous Version | Graphics & Text | Print | Product List | Glossary On
Versions: 1 2 3 4 5 6 7 8 9 10 11 12 13 14 15 16 17 18 19 20 21 22 23 24 25 26 27 28 29 30 31
000
FTUS41 KILN 292338
TAFCVG
TAF
KCVG 292338Z 3000/3106 24006KT P6SM VCTS BKN040CB BKN200
      TEMPO 3000/3002 3SM -TSRA BR BKN035CB
     FM300200 30006KT P6SM SCT040 BKN120
     FM300400 32004KT P6SM SCT120
     FM300800 34007KT P6SM SCT020
     FM301300 29007KT P6SM FEW030
     FM302300 VRB04KT P6SM SKC=

USA.gov is the U.S. government's official web portal to all federal, state and local government web resources and services.